Rumley, Arkansas
Current Conditions -  °F | °C
As of 10:35 PM on Wednesday 22 Oct 2014 (Local Time) from KFLP Reporting Station
Clear Clear  
Wind Chill: 50°   Ceiling: Unl
Heat Index: 50°   Visibility: 1.2mi
Dew Point: 43°   Wind: 0mph
Humidity: 76%   Direction: NA
Pressure: 30.21"   Gusts: NA
Location:  35.8223°N, 92.5849°W
Report Text: KFLP 230335Z AUTO 00000KT 1 1/4SM CLR 10/06 A3021 RMK AO1
Loading
Personal Weather Stations






























Interactive Weather Map
Tropical Storm Tracking
New forecast layout! Learn more

10-Day Weather Forecast

Advertisements
Track Severe Weather on mobile